Time;durP1;ratioP1;P1;durP2;ratioP2;P2;SDS_P1;SDS_P2;PMS_P1;PMS_P2;Temp;Humidity;BMP_temperature;BMP_pressure;BME280_temperature;BME280_humidity;BME280_pressure;Samples;Min_cycle;Max_cycle;Signal;HPM_P1;HPM_P2
2021/05/14 00:01:17;;;;;;;0.70;0.25;;;;;;;14.57;59.34;98712.13;4358569;32;34013;-87
2021/05/14 00:03:46;;;;;;;0.70;0.22;;;;;;;14.65;59.22;98719.50;4384511;32;33498;-87
2021/05/14 00:06:14;;;;;;;4.62;0.50;;;;;;;14.69;59.31;98711.19;4383214;32;33760;-87
2021/05/14 00:08:42;;;;;;;1.02;0.37;;;;;;;14.67;59.44;98704.28;4377550;32;35256;-87
2021/05/14 00:11:10;;;;;;;0.57;0.35;;;;;;;14.74;59.13;98708.16;4366528;32;35527;-86
2021/05/14 00:13:38;;;;;;;1.95;0.60;;;;;;;14.60;59.42;98706.56;4378934;32;32885;-87
2021/05/14 00:16:08;;;;;;;2.22;0.35;;;;;;;14.40;60.56;98709.91;4379104;32;33504;-87
2021/05/14 00:18:36;;;;;;;1.17;0.47;;;;;;;14.67;59.52;98712.25;4379335;32;33795;-86
2021/05/14 00:21:04;;;;;;;1.75;0.50;;;;;;;14.64;59.74;98707.19;4390220;32;34230;-87
2021/05/14 00:23:32;;;;;;;2.12;0.20;;;;;;;14.61;59.98;98702.94;4371293;32;35025;-85
2021/05/14 00:25:59;;;;;;;1.20;0.50;;;;;;;14.63;59.89;98709.00;4371317;32;34117;-85
2021/05/14 00:28:27;;;;;;;0.50;0.45;;;;;;;14.59;59.95;98708.38;4376849;32;34346;-85
2021/05/14 00:30:55;;;;;;;0.82;0.45;;;;;;;14.57;60.10;98712.13;4364783;32;34017;-85
2021/05/14 00:33:23;;;;;;;0.47;0.30;;;;;;;14.40;60.69;98720.53;4389864;32;34099;-85
2021/05/14 00:35:51;;;;;;;0.17;0.10;;;;;;;14.49;60.36;98720.69;4390281;32;34279;-85
2021/05/14 00:38:19;;;;;;;1.87;0.32;;;;;;;14.24;61.43;98718.16;4375944;32;34828;-85
2021/05/14 00:40:47;;;;;;;2.00;0.32;;;;;;;14.24;61.62;98724.34;4389541;32;35459;-86
2021/05/14 00:43:15;;;;;;;0.57;0.40;;;;;;;14.42;60.69;98718.56;4376161;32;35051;-86
2021/05/14 00:45:43;;;;;;;0.60;0.40;;;;;;;14.59;60.32;98716.34;4377016;32;34788;-85
2021/05/14 00:48:11;;;;;;;0.60;0.40;;;;;;;14.80;59.70;98713.81;4377263;32;35297;-85
2021/05/14 00:50:39;;;;;;;0.62;0.50;;;;;;;14.70;59.77;98712.84;4390043;32;34550;-85
2021/05/14 00:53:14;;;;;;;0.47;0.30;;;;;;;14.64;59.61;98712.50;4391225;32;33682;-85
2021/05/14 00:55:42;;;;;;;0.40;0.30;;;;;;;14.41;60.44;98720.41;4376503;32;34037;-85
2021/05/14 00:58:10;;;;;;;0.40;0.20;;;;;;;14.34;60.48;98716.53;4385048;32;33642;-85
2021/05/14 01:00:38;;;;;;;1.17;0.40;;;;;;;14.44;59.56;98717.50;4370669;32;34275;-85
2021/05/14 01:03:06;;;;;;;1.65;0.30;;;;;;;14.56;59.66;98723.72;4376854;32;32986;-85
2021/05/14 01:05:33;;;;;;;0.70;0.57;;;;;;;14.67;59.31;98728.19;4391486;32;33683;-85
2021/05/14 01:08:01;;;;;;;0.30;0.30;;;;;;;14.45;59.80;98729.81;4391747;32;33456;-85
2021/05/14 01:10:30;;;;;;;0.55;0.40;;;;;;;14.59;59.95;98732.28;4391509;32;33882;-84
2021/05/14 01:12:58;;;;;;;2.22;0.40;;;;;;;14.66;59.32;98722.03;4390697;32;32627;-86
2021/05/14 01:15:25;;;;;;;0.30;0.30;;;;;;;14.67;59.28;98725.53;4376671;32;32548;-85
2021/05/14 01:17:54;;;;;;;2.28;0.32;;;;;;;14.83;59.06;98723.38;4389260;32;34298;-85
2021/05/14 01:20:29;;;;;;;0.37;0.37;;;;;;;14.84;59.16;98733.03;4377177;32;35538;-84
2021/05/14 01:22:57;;;;;;;0.70;0.40;;;;;;;14.79;59.24;98737.88;4388724;32;33209;-84
2021/05/14 01:25:25;;;;;;;0.77;0.50;;;;;;;14.76;58.93;98730.13;4389681;32;33633;-84
2021/05/14 01:27:53;;;;;;;1.77;0.30;;;;;;;14.90;58.70;98729.91;4376987;32;32357;-84
2021/05/14 01:30:22;;;;;;;0.47;0.30;;;;;;;14.83;59.21;98723.38;4389669;32;34549;-84
2021/05/14 01:32:50;;;;;;;1.83;0.35;;;;;;;14.43;61.23;98733.53;4376766;32;33778;-84
2021/05/14 01:35:18;;;;;;;0.88;0.30;;;;;;;14.43;61.21;98725.56;4389245;32;35143;-84
2021/05/14 01:37:46;;;;;;;0.40;0.40;;;;;;;14.58;60.49;98727.09;4388781;32;34496;-84
2021/05/14 01:40:13;;;;;;;1.75;0.30;;;;;;;14.75;59.65;98731.09;4388974;32;35574;-84
2021/05/14 01:42:47;;;;;;;0.62;0.50;;;;;;;14.84;59.20;98730.38;4389010;32;34407;-85
2021/05/14 01:45:16;;;;;;;1.20;0.47;;;;;;;14.78;59.92;98728.22;4377134;32;34421;-83
2021/05/14 01:47:44;;;;;;;1.55;0.60;;;;;;;14.86;59.92;98728.47;4389424;32;34427;-83
2021/05/14 01:50:12;;;;;;;0.77;0.60;;;;;;;14.76;59.96;98727.47;4389607;32;34244;-85
2021/05/14 01:52:41;;;;;;;0.75;0.37;;;;;;;14.95;59.30;98724.22;4387580;32;33004;-85
2021/05/14 01:55:09;;;;;;;1.37;0.45;;;;;;;14.83;58.79;98728.69;4389160;32;34688;-85
2021/05/14 01:57:37;;;;;;;0.40;0.37;;;;;;;14.25;61.07;98727.84;4388832;32;34517;-85
2021/05/14 02:00:07;;;;;;;0.25;0.25;;;;;;;14.62;59.96;98731.19;4375553;32;34102;-85
2021/05/14 02:02:36;;;;;;;0.30;0.28;;;;;;;14.80;59.26;98723.62;4377095;32;33935;-85
2021/05/14 02:05:05;;;;;;;0.73;0.35;;;;;;;14.84;59.42;98731.22;4378418;32;36143;-85
2021/05/14 02:07:33;;;;;;;0.40;0.40;;;;;;;14.65;60.68;98730.97;4377272;32;34197;-85
2021/05/14 02:10:01;;;;;;;0.30;0.30;;;;;;;14.87;59.57;98726.66;4365977;32;34018;-84
2021/05/14 02:12:28;;;;;;;0.40;0.40;;;;;;;14.93;59.35;98727.00;4376858;32;32854;-84
2021/05/14 02:14:56;;;;;;;0.32;0.32;;;;;;;14.93;59.59;98729.66;4389110;32;33074;-84
2021/05/14 02:17:24;;;;;;;0.57;0.32;;;;;;;14.97;59.21;98735.59;4389226;32;33693;-85
2021/05/14 02:19:54;;;;;;;1.00;0.43;;;;;;;15.15;58.58;98734.16;4389372;32;33555;-85
2021/05/14 02:22:22;;;;;;;0.47;0.30;;;;;;;14.86;59.68;98733.78;4389023;32;34814;-85
2021/05/14 02:24:50;;;;;;;2.03;0.37;;;;;;;15.18;57.92;98733.03;4388772;32;33614;-85
2021/05/14 02:27:19;;;;;;;0.40;0.37;;;;;;;15.14;57.24;98726.28;4388543;32;35676;-85
2021/05/14 02:29:47;;;;;;;2.25;0.50;;;;;;;15.00;58.20;98741.53;4388769;32;33868;-84
2021/05/14 02:32:15;;;;;;;1.27;0.90;;;;;;;14.85;58.61;98743.53;4389026;32;33032;-84
2021/05/14 02:34:42;;;;;;;0.60;0.45;;;;;;;14.83;58.77;98742.00;4362839;32;35136;-85
2021/05/14 02:37:11;;;;;;;0.55;0.30;;;;;;;15.05;57.81;98746.47;4389847;32;32552;-85
2021/05/14 02:39:39;;;;;;;0.50;0.40;;;;;;;14.86;58.57;98736.44;4388719;32;34318;-85
2021/05/14 02:42:08;;;;;;;0.57;0.45;;;;;;;14.97;57.68;98732.94;4383506;32;33727;-85
2021/05/14 02:44:36;;;;;;;0.70;0.50;;;;;;;14.92;58.03;98746.59;4376604;32;33763;-84
2021/05/14 02:47:05;;;;;;;0.30;0.30;;;;;;;14.83;58.67;98744.66;4373997;32;33696;-84
2021/05/14 02:49:34;;;;;;;0.40;0.30;;;;;;;14.93;58.14;98745.63;4388278;32;35866;-85
2021/05/14 02:52:03;;;;;;;0.95;0.32;;;;;;;15.09;57.26;98740.78;4375418;32;35311;-84
2021/05/14 02:54:33;;;;;;;0.57;0.25;;;;;;;14.94;58.15;98752.63;4388583;32;33919;-85
2021/05/14 02:57:01;;;;;;;1.23;0.40;;;;;;;14.99;57.69;98747.78;4373460;32;35569;-85
2021/05/14 02:59:29;;;;;;;3.22;0.30;;;;;;;15.02;57.78;98752.88;4368842;32;34060;-84
2021/05/14 03:01:58;;;;;;;0.98;0.32;;;;;;;14.79;58.51;98759.97;4388433;32;32867;-84
2021/05/14 03:04:27;;;;;;;1.37;0.30;;;;;;;14.92;57.97;98759.03;4388627;32;34545;-84
2021/05/14 03:06:55;;;;;;;0.28;0.28;;;;;;;15.10;56.79;98760.25;4389522;32;34426;-83
2021/05/14 03:09:23;;;;;;;0.37;0.30;;;;;;;14.67;58.17;98754.75;4389276;32;33229;-83
2021/05/14 03:11:51;;;;;;;0.37;0.13;;;;;;;15.15;56.68;98749.25;4389153;32;34291;-84
2021/05/14 03:14:19;;;;;;;0.60;0.20;;;;;;;15.07;56.00;98750.69;4387741;32;34048;-84
2021/05/14 03:16:47;;;;;;;1.50;0.30;;;;;;;15.06;56.02;98751.66;4364301;32;34316;-84
2021/05/14 03:19:15;;;;;;;0.60;0.20;;;;;;;15.06;56.22;98756.97;4376127;32;34263;-84
2021/05/14 03:21:43;;;;;;;0.93;0.20;;;;;;;15.25;55.40;98752.88;4374993;32;33234;-84
2021/05/14 03:24:11;;;;;;;0.62;0.40;;;;;;;15.20;55.71;98763.03;4388670;32;33599;-83
2021/05/14 03:26:39;;;;;;;0.40;0.20;;;;;;;14.99;55.17;98765.53;4388839;32;33528;-84
2021/05/14 03:29:07;;;;;;;0.20;0.20;;;;;;;14.97;55.74;98768.34;4385892;32;32367;-84
2021/05/14 03:31:35;;;;;;;1.23;0.30;;;;;;;15.30;54.82;98762.16;4387813;32;33174;-84
2021/05/14 03:34:03;;;;;;;0.77;0.20;;;;;;;15.13;55.49;98777.75;4375559;32;33610;-84
2021/05/14 03:36:31;;;;;;;0.40;0.40;;;;;;;15.27;54.99;98775.69;4388050;32;33881;-84
2021/05/14 03:38:59;;;;;;;0.20;0.20;;;;;;;15.07;55.73;98779.94;4389202;32;35192;-84
2021/05/14 03:43:58;;;;;;;0.20;0.20;;;;;;;14.82;56.06;98780.16;4386640;32;35190;-84
2021/05/14 03:46:30;;;;;;;0.20;0.20;;;;;;;15.01;56.20;98780.44;4377270;32;34739;-84
2021/05/14 03:48:58;;;;;;;0.65;0.32;;;;;;;15.19;56.33;98787.91;4377963;32;33443;-84
2021/05/14 03:51:26;;;;;;;0.40;0.37;;;;;;;15.14;57.03;98779.44;4384480;32;33150;-84
2021/05/14 03:53:54;;;;;;;0.30;0.30;;;;;;;15.05;57.54;98784.53;4391563;32;33496;-84
2021/05/14 03:56:32;;;;;;;0.22;0.20;;;;;;;15.27;57.21;98785.50;4387686;32;34534;-83
2021/05/14 03:59:00;;;;;;;0.77;0.30;;;;;;;15.10;57.10;98789.50;4385634;32;32542;-83
2021/05/14 04:01:28;;;;;;;0.30;0.30;;;;;;;15.04;57.81;98785.47;4388102;32;32703;-83
2021/05/14 04:03:58;;;;;;;0.32;0.30;;;;;;;15.13;57.13;98799.03;4375618;32;34903;-83
2021/05/14 04:06:26;;;;;;;0.60;0.60;;;;;;;15.13;57.62;98793.72;4388948;32;33757;-83
2021/05/14 04:08:53;;;;;;;0.85;0.40;;;;;;;15.24;58.10;98793.69;4370979;32;33573;-83
2021/05/14 04:16:45;;;;;;;0.35;0.32;;;;;;;15.21;58.49;98802.78;4368895;32;34284;-83
2021/05/14 04:19:13;;;;;;;0.40;0.28;;;;;;;15.22;58.01;98808.94;4368031;32;33430;-83
2021/05/14 04:21:41;;;;;;;0.40;0.20;;;;;;;15.41;57.14;98798.53;4382690;32;33448;-84
2021/05/14 04:24:09;;;;;;;2.28;0.30;;;;;;;15.05;57.62;98804.97;4368271;32;35071;-84
2021/05/14 04:26:37;;;;;;;2.08;0.32;;;;;;;14.89;57.67;98805.28;4379340;32;33523;-84
2021/05/14 04:29:04;;;;;;;0.50;0.40;;;;;;;15.06;58.26;98804.84;4387175;32;34626;-84
2021/05/14 04:31:32;;;;;;;0.40;0.30;;;;;;;15.19;57.80;98814.50;4377965;32;33016;-84
2021/05/14 04:34:00;;;;;;;0.40;0.40;;;;;;;14.96;58.94;98808.34;4380284;32;34618;-84
2021/05/14 04:36:28;;;;;;;0.30;0.30;;;;;;;14.89;59.53;98810.59;4367253;32;33853;-84
2021/05/14 04:38:56;;;;;;;1.27;0.40;;;;;;;14.81;58.03;98815.66;4368036;32;33555;-84
2021/05/14 04:41:23;;;;;;;0.77;0.40;;;;;;;15.07;57.58;98808.34;4370067;32;33019;-85
2021/05/14 04:43:52;;;;;;;0.30;0.30;;;;;;;15.14;57.25;98812.19;4376707;32;35409;-84
2021/05/14 04:46:20;;;;;;;0.20;0.20;;;;;;;14.98;57.29;98817.88;4377446;32;33828;-85
2021/05/14 04:48:57;;;;;;;0.30;0.30;;;;;;;15.20;56.70;98814.41;4366012;32;34425;-86
2021/05/14 04:51:28;;;;;;;0.30;0.30;;;;;;;15.32;56.36;98820.56;4378837;32;33854;-84
2021/05/14 04:53:56;;;;;;;0.45;0.45;;;;;;;14.85;58.48;98825.94;4377316;32;33251;-85
2021/05/14 04:56:24;;;;;;;0.75;0.65;;;;;;;15.06;58.42;98820.78;4383661;32;34061;-85
2021/05/14 04:58:52;;;;;;;1.95;0.77;;;;;;;15.32;56.82;98825.88;4368755;32;35412;-84
2021/05/14 05:01:20;;;;;;;1.83;1.00;;;;;;;15.02;57.40;98824.66;4383112;32;34057;-85
2021/05/14 05:03:53;;;;;;;0.57;0.57;;;;;;;15.25;56.65;98824.69;4354549;32;34269;-84
2021/05/14 05:06:22;;;;;;;1.00;0.50;;;;;;;15.37;56.87;98823.69;4369731;32;33222;-84
2021/05/14 05:08:51;;;;;;;2.17;0.50;;;;;;;15.48;57.08;98830.84;4386794;32;33695;-84
2021/05/14 05:11:19;;;;;;;1.17;0.50;;;;;;;15.10;58.27;98824.06;4388189;32;32768;-84
2021/05/14 05:13:47;;;;;;;0.40;0.40;;;;;;;14.92;58.20;98836.13;4366519;32;33658;-86
2021/05/14 05:16:15;;;;;;;1.55;0.57;;;;;;;15.34;56.75;98830.13;4374695;32;33801;-86
2021/05/14 05:18:42;;;;;;;1.12;0.35;;;;;;;15.44;57.58;98834.72;4388145;32;34250;-87
2021/05/14 05:21:10;;;;;;;2.28;0.32;;;;;;;15.54;56.38;98831.19;4386178;32;32429;-87
2021/05/14 05:23:38;;;;;;;0.43;0.25;;;;;;;14.85;58.64;98835.72;4363820;32;34336;-85
2021/05/14 05:26:06;;;;;;;1.25;0.32;;;;;;;15.33;56.66;98838.19;4378149;32;34463;-86
2021/05/14 05:28:34;;;;;;;0.40;0.40;;;;;;;15.49;55.67;98841.34;4379221;32;34231;-84
2021/05/14 05:31:02;;;;;;;1.42;0.60;;;;;;;15.34;55.59;98847.91;4381040;32;33740;-84
2021/05/14 05:33:30;;;;;;;0.45;0.37;;;;;;;14.96;56.37;98857.03;4371224;32;34154;-84
2021/05/14 05:35:58;;;;;;;0.50;0.40;;;;;;;15.08;56.83;98856.06;4373455;32;33617;-84
2021/05/14 05:38:26;;;;;;;0.60;0.60;;;;;;;14.66;58.72;98862.00;4385073;32;33288;-84
2021/05/14 05:40:53;;;;;;;0.77;0.55;;;;;;;14.79;56.82;98876.06;4382150;32;33231;-84
2021/05/14 05:43:21;;;;;;;0.40;0.32;;;;;;;14.94;57.55;98869.56;4370846;32;34414;-84
2021/05/14 05:45:50;;;;;;;0.85;0.55;;;;;;;14.75;58.43;98874.59;4366764;32;35653;-88
2021/05/14 05:48:18;;;;;;;0.45;0.45;;;;;;;15.18;57.88;98873.97;4369578;32;34457;-88
2021/05/14 05:50:50;;;;;;;1.50;0.50;;;;;;;15.31;57.30;98866.75;4368809;32;34337;-88
2021/05/14 05:53:18;;;;;;;0.70;0.60;;;;;;;15.21;58.23;98869.28;4387422;32;33515;-88
2021/05/14 05:55:47;;;;;;;1.50;0.77;;;;;;;15.59;56.64;98871.59;4386230;32;34947;-89
2021/05/14 05:58:16;;;;;;;1.02;0.88;;;;;;;15.60;56.59;98878.59;4387226;32;33347;-89
2021/05/14 06:00:44;;;;;;;1.70;1.17;;;;;;;15.86;56.17;98876.56;4370634;32;34114;-90
2021/05/14 06:03:13;;;;;;;1.48;0.73;;;;;;;15.59;57.50;98879.56;4363921;32;35168;-90
2021/05/14 06:05:41;;;;;;;0.77;0.57;;;;;;;15.19;56.54;98878.31;4378979;32;33457;-89
2021/05/14 06:08:09;;;;;;;0.35;0.35;;;;;;;15.28;57.15;98877.59;4365314;32;33641;-90
2021/05/14 06:10:38;;;;;;;0.77;0.50;;;;;;;15.69;56.11;98879.72;4366045;32;32860;-90
2021/05/14 06:13:06;;;;;;;1.10;0.50;;;;;;;15.22;57.18;98889.56;4365935;32;33783;-90
2021/05/14 06:15:33;;;;;;;0.47;0.47;;;;;;;15.17;57.13;98888.25;4382479;32;33563;-90
2021/05/14 06:18:04;;;;;;;1.25;0.30;;;;;;;15.44;57.64;98882.59;4367672;32;35040;-89
2021/05/14 06:20:34;;;;;;;0.73;0.50;;;;;;;15.56;56.18;98893.09;4393286;32;33438;-90
2021/05/14 06:23:03;;;;;;;0.40;0.40;;;;;;;15.28;57.72;98890.91;4370162;32;34971;-90
2021/05/14 06:25:30;;;;;;;2.37;0.50;;;;;;;15.41;56.91;98894.31;4381267;32;34872;-89
2021/05/14 06:27:59;;;;;;;0.75;0.50;;;;;;;15.57;57.13;98904.59;4372171;32;35994;-90
2021/05/14 06:30:27;;;;;;;0.62;0.60;;;;;;;15.21;56.89;98903.00;4383708;32;33028;-90
2021/05/14 06:32:55;;;;;;;2.00;0.50;;;;;;;15.38;57.45;98905.19;4395026;32;33705;-90
2021/05/14 06:35:24;;;;;;;0.82;0.50;;;;;;;15.75;55.59;98907.66;4371108;32;34588;-90
2021/05/14 06:37:52;;;;;;;0.80;0.80;;;;;;;15.57;56.08;98916.09;4371496;32;34868;-90
2021/05/14 06:40:20;;;;;;;0.98;0.70;;;;;;;15.04;58.08;98923.72;4386118;32;31221;-90
2021/05/14 06:42:48;;;;;;;1.85;1.67;;;;;;;14.79;58.00;98918.56;4384067;32;33651;-90
2021/05/14 06:45:16;;;;;;;1.80;1.20;;;;;;;14.93;58.13;98931.69;4356814;32;34185;-90
2021/05/14 06:47:45;;;;;;;1.27;1.17;;;;;;;15.56;56.99;98925.03;4371106;32;33903;-90
2021/05/14 06:50:12;;;;;;;0.70;0.70;;;;;;;14.99;57.19;98923.22;4383953;32;32027;-91
2021/05/14 06:52:42;;;;;;;0.70;0.70;;;;;;;15.35;57.18;98929.38;4359745;32;34172;-90
2021/05/14 06:55:11;;;;;;;1.15;0.65;;;;;;;15.41;56.56;98928.88;4359611;32;35290;-90
2021/05/14 06:57:39;;;;;;;1.12;0.60;;;;;;;15.54;57.84;98937.62;4383962;32;34507;-89
2021/05/14 07:00:07;;;;;;;0.82;0.60;;;;;;;15.64;56.48;98931.63;4360414;32;33972;-90
2021/05/14 07:02:35;;;;;;;0.73;0.60;;;;;;;15.40;57.87;98935.19;4374056;32;34653;-88
2021/05/14 07:05:03;;;;;;;1.87;0.82;;;;;;;15.55;57.07;98938.47;4360668;32;35780;-89
2021/05/14 07:07:34;;;;;;;4.78;0.70;;;;;;;15.43;57.94;98940.28;4370171;32;34630;-87
2021/05/14 07:10:01;;;;;;;0.50;0.50;;;;;;;15.30;58.05;98939.53;4370012;32;33559;-89
2021/05/14 07:12:30;;;;;;;0.60;0.50;;;;;;;15.35;57.67;98938.19;4368108;32;34603;-91
2021/05/14 07:14:58;;;;;;;1.50;0.60;;;;;;;15.66;57.43;98950.97;4366207;32;33478;-87
2021/05/14 07:17:27;;;;;;;0.93;0.60;;;;;;;15.21;59.58;98950.88;4352326;32;33983;-87
2021/05/14 07:19:55;;;;;;;5.47;0.70;;;;;;;15.31;59.24;98946.53;4378476;32;34596;-93
2021/05/14 07:22:24;;;;;;;2.05;0.85;;;;;;;15.41;59.61;98944.84;4365163;32;35047;-87
2021/05/14 07:24:51;;;;;;;2.22;1.00;;;;;;;15.86;58.85;98940.47;4368927;32;34330;-88
2021/05/14 07:27:19;;;;;;;1.45;0.80;;;;;;;15.09;59.10;98953.47;4389793;32;34688;-88
2021/05/14 07:29:47;;;;;;;1.87;1.20;;;;;;;15.09;60.02;98953.47;4389591;32;34537;-88
2021/05/14 07:32:15;;;;;;;1.05;0.95;;;;;;;15.22;59.83;98952.56;4389538;32;34315;-88
2021/05/14 07:34:43;;;;;;;1.48;0.93;;;;;;;15.44;60.01;98946.44;4389404;32;34844;-88
2021/05/14 07:37:12;;;;;;;0.88;0.73;;;;;;;15.33;60.12;98955.22;4389613;32;34902;-87
2021/05/14 07:39:41;;;;;;;2.80;1.08;;;;;;;15.76;59.16;98955.47;4389956;32;33817;-87
2021/05/14 07:42:09;;;;;;;0.95;0.80;;;;;;;15.71;60.41;98960.28;4389402;32;33715;-87
2021/05/14 07:44:37;;;;;;;2.70;0.82;;;;;;;16.04;60.79;98950.59;4392339;32;35405;-87
2021/05/14 07:47:05;;;;;;;1.25;0.90;;;;;;;16.07;59.77;98961.84;4389403;32;34056;-87
2021/05/14 07:49:33;;;;;;;1.77;0.80;;;;;;;15.93;59.34;98964.78;4389685;32;35081;-88
2021/05/14 07:52:01;;;;;;;2.17;1.17;;;;;;;16.07;59.34;98967.19;4388416;32;34028;-87
2021/05/14 07:54:29;;;;;;;1.87;0.80;;;;;;;15.93;60.16;98969.25;4388881;32;33988;-87
2021/05/14 07:56:57;;;;;;;1.58;0.77;;;;;;;15.85;59.42;98964.50;4375446;32;36142;-87
2021/05/14 07:59:27;;;;;;;1.17;0.98;;;;;;;16.42;59.53;98960.00;4389384;32;33176;-87
2021/05/14 08:01:54;;;;;;;1.37;1.20;;;;;;;16.04;59.28;98971.91;4376185;32;35529;-86
2021/05/14 08:04:22;;;;;;;2.40;1.12;;;;;;;16.18;59.03;98968.12;4388947;32;33348;-87
2021/05/14 08:06:50;;;;;;;1.15;1.05;;;;;;;16.39;59.53;98969.09;4375896;32;34381;-87
2021/05/14 08:09:23;;;;;;;1.87;0.88;;;;;;;16.52;59.33;98967.13;4388921;32;32895;-87
2021/05/14 08:11:51;;;;;;;3.17;1.83;;;;;;;16.19;59.66;98977.81;4379905;32;35161;-87
2021/05/14 08:14:19;;;;;;;2.92;1.02;;;;;;;16.22;59.57;98986.41;4375543;32;34190;-87
2021/05/14 08:16:48;;;;;;;1.65;1.30;;;;;;;16.23;58.81;98979.28;4364111;32;34363;-87
2021/05/14 08:19:16;;;;;;;2.28;1.60;;;;;;;16.26;59.19;98981.69;4376938;32;33924;-88
2021/05/14 08:21:47;;;;;;;1.40;1.30;;;;;;;16.37;59.46;98984.34;4388773;32;34227;-88
2021/05/14 08:24:15;;;;;;;1.80;0.90;;;;;;;16.07;60.31;98977.84;4380233;32;34797;-88
2021/05/14 08:26:44;;;;;;;3.33;0.60;;;;;;;16.09;58.52;98991.91;4388782;32;33551;-88
2021/05/14 08:29:12;;;;;;;0.65;0.57;;;;;;;16.27;56.90;98997.56;4388826;32;33674;-88
2021/05/14 08:31:40;;;;;;;2.97;0.80;;;;;;;15.94;59.69;99009.06;4390313;32;34575;-88
2021/05/14 08:34:10;;;;;;;2.05;0.47;;;;;;;16.21;56.75;98997.19;4382868;32;34704;-88
2021/05/14 08:36:39;;;;;;;0.75;0.50;;;;;;;16.32;57.82;99005.16;4377619;32;34054;-88
2021/05/14 08:39:08;;;;;;;0.68;0.68;;;;;;;16.61;56.83;99003.66;4367263;32;33927;-89
2021/05/14 08:41:37;;;;;;;0.60;0.57;;;;;;;16.50;58.11;99013.50;4377326;32;33710;-89
2021/05/14 08:44:06;;;;;;;0.82;0.62;;;;;;;16.10;58.48;99017.56;4392024;32;33516;-90
2021/05/14 08:47:16;;;;;;;0.95;0.55;;;;;;;16.13;59.52;99014.62;4391037;32;34711;-90
2021/05/14 08:49:46;;;;;;;0.57;0.57;;;;;;;15.72;59.95;99022.34;4386949;32;32994;-88
2021/05/14 08:52:15;;;;;;;1.60;0.70;;;;;;;15.76;59.20;99019.34;4362571;32;34104;-88
2021/05/14 08:54:56;;;;;;;0.82;0.80;;;;;;;16.23;57.91;99024.56;4357975;32;141180;-88
2021/05/14 08:57:24;;;;;;;1.85;0.88;;;;;;;16.02;59.12;99025.28;4372790;32;34193;-87
2021/05/14 08:59:53;;;;;;;2.75;1.05;;;;;;;15.98;58.53;99023.81;4370062;32;33203;-87
2021/05/14 09:02:20;;;;;;;2.12;0.77;;;;;;;15.78;57.23;99028.03;4364811;32;35409;-88
2021/05/14 09:04:49;;;;;;;0.68;0.60;;;;;;;16.15;58.85;99035.81;4371927;32;35747;-88
2021/05/14 09:07:19;;;;;;;0.50;0.50;;;;;;;16.20;59.75;99025.66;4372042;32;34886;-88
2021/05/14 09:10:23;;;;;;;0.95;0.80;;;;;;;16.51;57.01;99029.38;4387237;32;34176;-88
2021/05/14 09:12:51;;;;;;;2.78;0.70;;;;;;;16.38;57.50;99028.69;4299687;33;34294;-88
2021/05/14 09:15:23;;;;;;;1.62;0.80;;;;;;;16.70;57.32;99030.56;4351614;32;32630;-88
2021/05/14 09:18:14;;;;;;;2.08;0.62;;;;;;;16.81;56.08;99035.91;4371340;32;35689;-89
2021/05/14 09:20:59;;;;;;;0.95;0.70;;;;;;;16.82;56.17;99037.59;4383096;32;33379;-89
2021/05/14 09:23:33;;;;;;;0.80;0.80;;;;;;;16.64;58.08;99038.06;4385591;32;34078;-88
2021/05/14 09:26:04;;;;;;;1.02;0.93;;;;;;;16.96;56.40;99031.97;4384247;32;35237;-88
2021/05/14 09:28:33;;;;;;;;;;;;;;;17.08;55.21;99036.28;4387621;32;32910;-88
2021/05/14 09:31:08;;;;;;;1.65;0.70;;;;;;;17.16;55.15;99043.66;4384856;32;32717;-89
2021/05/14 09:33:39;;;;;;;0.75;0.75;;;;;;;17.00;56.80;99044.09;4371504;32;34888;-89
2021/05/14 09:36:10;;;;;;;0.90;0.80;;;;;;;17.00;55.22;99046.75;4365546;32;34044;-89
2021/05/14 09:38:43;;;;;;;1.45;0.90;;;;;;;17.29;55.22;99046.19;4378916;32;34486;-88
2021/05/14 09:41:24;;;;;;;0.93;0.80;;;;;;;17.04;54.84;99042.88;4356201;32;33850;-89
2021/05/14 09:44:03;;;;;;;0.77;0.77;;;;;;;17.18;57.08;99048.87;4382368;32;34563;-89
2021/05/14 09:46:52;;;;;;;2.03;1.12;;;;;;;17.00;53.93;99045.91;4380409;32;34721;-89
2021/05/14 09:49:23;;;;;;;2.08;0.80;;;;;;;16.91;55.04;99058.19;4355459;32;34506;-88
2021/05/14 09:51:56;;;;;;;1.45;0.85;;;;;;;16.93;54.27;99042.91;4367760;32;32956;-88
2021/05/14 09:54:26;;;;;;;2.40;1.50;;;;;;;17.06;54.22;99051.59;4366917;32;33637;-88
2021/05/14 09:57:04;;;;;;;4.95;2.20;;;;;;;16.80;54.94;99058.19;4365268;32;34776;-88
2021/05/14 09:59:32;;;;;;;3.03;1.42;;;;;;;16.31;56.49;99065.59;4379195;32;33685;-89
2021/05/14 10:02:01;;;;;;;1.27;1.17;;;;;;;16.67;57.54;99065.47;4368190;32;33520;-88
2021/05/14 10:04:35;;;;;;;1.20;1.10;;;;;;;16.49;58.40;99059.78;4366468;32;34513;-88
2021/05/14 10:07:03;;;;;;;2.00;1.90;;;;;;;16.74;56.33;99062.19;4354239;32;35559;-88
2021/05/14 10:09:32;;;;;;;1.85;1.12;;;;;;;16.77;57.91;99067.31;4376096;32;35856;-89
2021/05/14 10:12:02;;;;;;;1.00;0.90;;;;;;;16.46;55.58;99063.53;4365323;32;34641;-88
2021/05/14 10:14:30;;;;;;;1.10;0.70;;;;;;;16.92;55.06;99053.69;4378829;32;33987;-89
2021/05/14 10:17:00;;;;;;;1.37;1.23;;;;;;;16.95;55.55;99064.09;4355734;32;33297;-88
2021/05/14 10:19:29;;;;;;;1.62;0.80;;;;;;;16.99;54.76;99063.72;4364996;32;33904;-88
2021/05/14 10:21:58;;;;;;;1.80;0.70;;;;;;;17.09;53.51;99055.81;4379407;32;34239;-88
2021/05/14 10:24:46;;;;;;;3.08;0.60;;;;;;;16.45;54.50;99064.50;4367025;32;34032;-88
2021/05/14 10:27:20;;;;;;;0.57;0.50;;;;;;;16.73;54.61;99063.19;4367335;32;33587;-88
2021/05/14 10:29:53;;;;;;;0.60;0.60;;;;;;;16.42;54.53;99061.25;4377872;32;33454;-88
2021/05/14 10:32:43;;;;;;;2.40;0.73;;;;;;;16.47;53.50;99059.91;4380191;32;33092;-88
2021/05/14 10:35:13;;;;;;;2.58;0.90;;;;;;;16.34;54.98;99065.38;4378579;32;34441;-87
2021/05/14 10:37:45;;;;;;;1.35;0.98;;;;;;;16.61;55.95;99064.97;4382623;32;33813;-86
2021/05/14 10:40:28;;;;;;;1.12;0.88;;;;;;;16.77;57.53;99061.97;4401322;32;33658;-86
2021/05/14 10:42:57;;;;;;;0.90;0.80;;;;;;;16.86;53.28;99065.72;4375399;32;34742;-86
2021/05/14 10:45:42;;;;;;;1.33;0.88;;;;;;;17.14;53.98;99061.63;4374097;32;34416;-85
2021/05/14 10:48:21;;;;;;;1.45;0.93;;;;;;;17.05;52.85;99068.56;4397432;32;35054;-85
2021/05/14 10:50:52;;;;;;;3.65;1.10;;;;;;;17.38;52.91;99067.59;4374009;32;35695;-85
2021/05/14 10:53:36;;;;;;;1.08;0.80;;;;;;;17.33;52.54;99063.63;4400475;32;33140;-85
2021/05/14 10:56:10;;;;;;;1.00;0.88;;;;;;;17.36;52.16;99076.69;4385185;32;33478;-85
2021/05/14 10:58:54;;;;;;;1.17;0.68;;;;;;;16.96;52.16;99088.00;4369329;32;33816;-86
2021/05/14 11:01:35;;;;;;;1.83;1.17;;;;;;;17.05;53.34;99089.91;4384979;32;35479;-85
2021/05/14 11:04:24;;;;;;;1.98;0.98;;;;;;;16.52;53.78;99087.06;4370827;32;33882;-85
2021/05/14 11:06:53;;;;;;;2.45;1.08;;;;;;;16.72;53.35;99084.66;4385676;32;33316;-86
2021/05/14 11:09:23;;;;;;;1.75;1.02;;;;;;;16.68;54.51;99100.00;4371851;32;33548;-85
2021/05/14 11:12:02;;;;;;;1.40;1.02;;;;;;;16.90;54.27;99093.78;4373414;32;34673;-85
2021/05/14 11:14:38;;;;;;;3.00;1.15;;;;;;;17.01;53.15;99091.12;4371079;32;33264;-85
2021/05/14 11:17:16;;;;;;;1.70;1.15;;;;;;;17.02;52.61;99087.47;4384870;32;33426;-85
2021/05/14 11:19:51;;;;;;;2.28;0.60;;;;;;;17.12;53.60;99099.09;4370531;32;35677;-85
2021/05/14 11:22:23;;;;;;;0.60;0.55;;;;;;;16.57;52.06;99092.88;4385605;32;33236;-85
2021/05/14 11:25:14;;;;;;;0.75;0.50;;;;;;;16.62;52.50;99080.00;4386645;32;33289;-86
2021/05/14 11:27:42;;;;;;;0.68;0.60;;;;;;;16.83;51.62;99090.78;4359069;32;34543;-86
2021/05/14 11:30:13;;;;;;;3.40;0.93;;;;;;;17.28;51.74;99076.47;4371703;32;32365;-86
2021/05/14 11:32:44;;;;;;;1.73;0.85;;;;;;;17.87;50.14;99084.84;4382367;32;32541;-86
2021/05/14 11:35:22;;;;;;;1.70;1.17;;;;;;;18.06;49.36;99073.44;4371768;32;33700;-86
2021/05/14 11:37:56;;;;;;;1.60;1.10;;;;;;;18.47;49.48;99082.34;4382977;32;34022;-86
2021/05/14 11:40:29;;;;;;;1.02;0.75;;;;;;;18.50;48.82;99082.06;4372124;32;33849;-86
2021/05/14 11:43:02;;;;;;;0.70;0.60;;;;;;;18.54;46.84;99078.16;4382445;32;34196;-86
2021/05/14 11:45:32;;;;;;;1.92;0.52;;;;;;;18.25;48.69;99082.53;4383446;32;34215;-86
2021/05/14 11:48:01;;;;;;;1.30;0.73;;;;;;;18.15;48.88;99083.31;4369336;32;34743;-86
2021/05/14 11:50:35;;;;;;;5.07;0.45;;;;;;;18.45;47.70;99078.97;4357973;32;35166;-86
2021/05/14 11:53:08;;;;;;;2.70;0.60;;;;;;;18.74;47.25;99079.09;4385206;32;33565;-86
2021/05/14 11:55:38;;;;;;;0.73;0.47;;;;;;;18.55;46.15;99085.19;4369948;32;33830;-86